LIMJ

Genoa/Cristoforo Colombo Airport

Airport
ICAO code
LIMJ
IATA Code
GOA
Summary
ICAO Region
EUR
ICAO Territory
Location

Sestri Ponente, Genoa, Liguria

Serving
Genoa
Elevation
13 ft
Coordinates
44° 24' 43" N , 8° 50' 47" E
KCC
Airport RE
Aquaplaning
Airport WX
Low Level Turbulence
Metar
Observation
LIMJ 031920Z 15005KT 9999 FEW020 SCT032 13/09 Q1025
Station
Genova / Sestri
Date/Time
2023-02-03 20:20:00
Wind direction
150°
Wind speed
05 kts
Lowest cloud amount
few clouds
Temperature
13°C
Dew point
9°C
Humidity
76%
QNH
1025 hPa
Weather condition
n/a

International airport serving Italian port of Genova.

Climatology

Dry-summer subtropical ”Mediterranean" climate (Köppen climate classification Csa) - characterized by hot, dry summers and mild winters. During the summer, subtropical high pressure cells dominate, making rainfall unlikely except for the occasional thunderstorm. In the winter, periodic storms bring rain (snow at higher elevations).

Runways

Designator Length Width Surface Rops
11/29 2915 45 ASP Yes/Yes

Airport map

Aerial View

SKYbrary Partners:

Safety knowledge contributed by: